Time;durP1;ratioP1;P1;durP2;ratioP2;P2;SDS_P1;SDS_P2;PMS_P1;PMS_P2;Temp;Humidity;BMP_temperature;BMP_pressure;BME280_temperature;BME280_humidity;BME280_pressure;Samples;Min_cycle;Max_cycle;Signal;HPM_P1;HPM_P2
2022/08/22 00:02:33;;;;;;;7.70;3.30;;;;;;;16.38;72.79;101513.78;5059036;28;20029;-76
2022/08/22 00:05:36;;;;;;;8.20;3.83;;;;;;;16.38;71.69;101519.03;5057936;28;20033;-76
2022/08/22 00:08:08;;;;;;;8.15;4.03;;;;;;;16.34;73.33;101520.06;4981844;28;20033;-76
2022/08/22 00:11:07;;;;;;;7.38;3.75;;;;;;;16.32;72.44;101517.50;4976320;28;20141;-76
2022/08/22 00:13:44;;;;;;;6.72;3.83;;;;;;;16.30;73.26;101514.09;5038963;28;20413;-76
2022/08/22 00:16:26;;;;;;;10.98;4.22;;;;;;;16.29;73.20;101511.50;5059475;28;20113;-76
2022/08/22 00:19:01;;;;;;;8.93;4.03;;;;;;;16.26;74.45;101516.88;5057806;28;20029;-76
2022/08/22 00:22:07;;;;;;;9.30;4.30;;;;;;;16.24;73.06;101509.06;5062715;28;20082;-76
2022/08/22 00:24:48;;;;;;;6.65;3.78;;;;;;;16.21;73.59;101504.81;5056350;28;20033;-76
2022/08/22 00:27:22;;;;;;;6.65;3.80;;;;;;;16.21;74.48;101510.06;5057919;28;20467;-76
2022/08/22 00:29:59;;;;;;;5.80;3.78;;;;;;;16.19;74.51;101504.00;5057336;28;20040;-76
2022/08/22 00:32:31;;;;;;;7.72;3.95;;;;;;;16.16;75.43;101511.13;5062338;28;20050;-76
2022/08/22 00:35:01;;;;;;;8.93;3.92;;;;;;;16.14;75.30;101510.34;5064169;28;20020;-77
2022/08/22 00:38:01;;;;;;;8.15;4.13;;;;;;;16.14;73.91;101508.56;5060469;28;20032;-76
2022/08/22 00:40:42;;;;;;;8.38;3.75;;;;;;;16.13;74.62;101512.09;5061442;28;20044;-76
2022/08/22 00:43:45;;;;;;;5.50;3.67;;;;;;;16.11;74.48;101513.94;5062915;28;20375;-76
2022/08/22 00:46:25;;;;;;;8.77;4.00;;;;;;;16.10;75.17;101520.09;5065684;28;20024;-76
2022/08/22 00:49:03;;;;;;;6.88;4.05;;;;;;;16.08;74.54;101514.91;5063743;28;20073;-76
2022/08/22 00:52:03;;;;;;;9.02;4.60;;;;;;;16.06;74.18;101513.25;5064952;28;20040;-76
2022/08/22 00:55:22;;;;;;;6.25;4.22;;;;;;;16.02;73.93;101524.78;5065388;28;20052;-77
2022/08/22 00:58:25;;;;;;;9.85;4.35;;;;;;;15.98;74.14;101523.19;5002535;28;20050;-76
2022/08/22 01:00:58;;;;;;;8.07;4.60;;;;;;;15.97;75.14;101522.31;5063222;28;20434;-76
2022/08/22 01:03:32;;;;;;;8.57;4.10;;;;;;;15.93;75.40;101521.59;5045699;28;20487;-76
2022/08/22 01:06:13;;;;;;;7.13;4.30;;;;;;;15.95;75.54;101523.31;5059645;28;20035;-76
2022/08/22 01:08:56;;;;;;;9.63;4.50;;;;;;;15.96;76.05;101525.00;5060604;28;20020;-76
2022/08/22 01:11:51;;;;;;;7.18;3.90;;;;;;;15.96;75.33;101519.75;5061784;28;20056;-76
2022/08/22 01:14:47;;;;;;;8.18;3.95;;;;;;;15.98;75.65;101523.19;5059194;28;20035;-76
2022/08/22 01:17:49;;;;;;;6.85;4.00;;;;;;;15.99;75.70;101522.28;5061953;28;20033;-76
2022/08/22 01:20:17;;;;;;;5.53;3.88;;;;;;;15.98;76.83;101528.44;5061717;28;20024;-77
2022/08/22 01:23:14;;;;;;;9.82;4.70;;;;;;;16.00;76.09;101524.84;5062143;28;20033;-76
2022/08/22 01:26:17;;;;;;;9.32;4.53;;;;;;;16.03;75.72;101526.50;5060793;28;20527;-76
2022/08/22 01:29:27;;;;;;;6.65;4.28;;;;;;;16.03;75.50;101522.09;5068399;28;20071;-76
2022/08/22 01:32:30;;;;;;;6.50;4.25;;;;;;;16.04;75.14;101525.59;5035966;28;22113;-76
2022/08/22 01:35:07;;;;;;;7.93;4.20;;;;;;;16.03;76.57;101521.25;5057553;28;20043;-76
2022/08/22 01:38:04;;;;;;;7.65;4.80;;;;;;;16.03;75.93;101524.72;5063459;28;20048;-76
2022/08/22 01:41:11;;;;;;;7.78;4.35;;;;;;;16.03;75.55;101519.47;5059506;28;20100;-76
2022/08/22 01:43:42;;;;;;;7.68;4.22;;;;;;;16.03;76.47;101521.25;5062026;28;20021;-76
2022/08/22 01:46:31;;;;;;;6.82;4.25;;;;;;;16.04;75.29;101518.56;5063865;28;20491;-75
2022/08/22 01:49:07;;;;;;;7.75;4.50;;;;;;;16.03;76.80;101521.25;5064821;28;20373;-77
2022/08/22 01:51:44;;;;;;;7.28;4.32;;;;;;;16.02;76.46;101516.91;5061332;28;20025;-76
2022/08/22 01:54:22;;;;;;;10.15;4.80;;;;;;;16.02;76.23;101516.91;5060607;28;20102;-76
2022/08/22 01:56:48;;;;;;;9.02;4.78;;;;;;;16.00;76.20;101516.13;5062843;28;20028;-76
2022/08/22 01:59:25;;;;;;;7.10;4.95;;;;;;;15.99;75.74;101510.00;5062283;28;20396;-76
2022/08/22 02:01:53;;;;;;;11.68;5.20;;;;;;;16.01;75.61;101513.41;5061539;28;20048;-76
2022/08/22 02:04:32;;;;;;;9.88;5.72;;;;;;;16.05;75.32;101511.56;5043406;28;20115;-76
2022/08/22 02:07:05;;;;;;;9.60;5.28;;;;;;;16.05;75.72;101514.19;5062637;28;20028;-76
2022/08/22 02:10:03;;;;;;;9.57;5.15;;;;;;;16.07;75.36;101507.94;5061771;28;20021;-76
2022/08/22 02:12:34;;;;;;;8.77;4.85;;;;;;;16.08;75.72;101500.91;5058941;28;20166;-74
2022/08/22 02:15:21;;;;;;;7.97;4.50;;;;;;;16.08;75.64;101507.03;5060740;28;20021;-76
2022/08/22 02:17:51;;;;;;;9.38;4.75;;;;;;;16.08;76.39;101504.41;5060650;28;20081;-77
2022/08/22 02:20:23;;;;;;;10.27;5.03;;;;;;;16.08;76.75;101506.16;5062820;28;20137;-76
2022/08/22 02:23:16;;;;;;;7.70;4.28;;;;;;;16.07;76.20;101509.72;5061030;28;20050;-76
2022/08/22 02:26:00;;;;;;;6.80;4.60;;;;;;;16.05;76.01;101509.78;5062897;28;20123;-76
2022/08/22 02:28:47;;;;;;;9.70;5.00;;;;;;;16.05;75.52;101499.28;5062377;28;20024;-76
2022/08/22 02:31:18;;;;;;;8.88;5.30;;;;;;;16.05;76.01;101506.31;5059109;28;20039;-76
2022/08/22 02:33:44;;;;;;;8.27;4.88;;;;;;;16.04;75.75;101497.56;5060521;28;20025;-76
2022/08/22 02:36:18;;;;;;;10.18;4.63;;;;;;;16.04;75.70;101492.31;5059993;28;20106;-74
2022/08/22 02:39:05;;;;;;;9.00;4.78;;;;;;;16.06;75.48;101493.13;5059088;28;20479;-74
2022/08/22 02:41:43;;;;;;;8.13;4.40;;;;;;;16.08;75.55;101493.03;5061711;28;20033;-74
2022/08/22 02:44:30;;;;;;;8.68;4.45;;;;;;;16.08;75.21;101485.16;5061793;28;20032;-74
2022/08/22 02:47:07;;;;;;;8.10;4.35;;;;;;;16.07;75.64;101484.34;5060879;28;20036;-74
2022/08/22 02:50:01;;;;;;;7.60;4.28;;;;;;;16.07;75.90;101489.59;5063671;28;20023;-75
2022/08/22 02:52:31;;;;;;;8.30;4.90;;;;;;;16.07;76.75;101496.59;5033639;28;20047;-74
2022/08/22 02:55:05;;;;;;;6.90;4.53;;;;;;;16.06;76.43;101494.88;5060818;28;20028;-76
2022/08/22 02:57:36;;;;;;;7.10;3.95;;;;;;;16.05;76.95;101486.16;5058840;28;20025;-76
2022/08/22 03:00:13;;;;;;;6.63;4.00;;;;;;;16.06;76.21;101485.25;5059253;28;20102;-74
2022/08/22 03:02:51;;;;;;;6.82;4.07;;;;;;;16.04;76.91;101478.34;5039194;28;20388;-74
2022/08/22 03:05:22;;;;;;;6.90;3.90;;;;;;;16.04;76.90;101488.84;5060985;28;20021;-75
2022/08/22 03:07:58;;;;;;;8.57;3.90;;;;;;;16.05;76.70;101487.94;5064540;28;20360;-76
2022/08/22 03:10:28;;;;;;;7.75;3.80;;;;;;;16.03;77.19;101482.72;5059886;28;20041;-76
2022/08/22 03:13:12;;;;;;;6.30;3.87;;;;;;;16.06;77.81;101484.38;5059202;28;20162;-74
2022/08/22 03:15:48;;;;;;;7.85;3.92;;;;;;;16.07;77.46;101480.84;5059912;28;20356;-74
2022/08/22 03:18:32;;;;;;;7.13;3.97;;;;;;;16.09;77.02;101481.63;5057181;28;20033;-74
2022/08/22 03:21:43;;;;;;;7.00;3.78;;;;;;;16.11;76.47;101478.97;5059070;28;20035;-76
2022/08/22 03:24:34;;;;;;;9.07;4.22;;;;;;;16.10;77.38;101485.13;4963353;28;20089;-74
2022/08/22 03:27:12;;;;;;;5.63;3.80;;;;;;;16.09;76.15;101489.50;4962931;28;20111;-74
2022/08/22 03:29:48;;;;;;;9.45;4.10;;;;;;;16.07;76.39;101484.34;5039440;28;20041;-74
2022/08/22 03:32:18;;;;;;;5.95;3.95;;;;;;;16.07;77.10;101476.44;5057598;28;20037;-75
2022/08/22 03:35:08;;;;;;;7.72;4.30;;;;;;;16.05;76.03;101469.56;5059609;28;20127;-74
2022/08/22 03:37:36;;;;;;;9.40;3.92;;;;;;;16.01;76.86;101465.34;5035895;28;20066;-74
2022/08/22 03:40:30;;;;;;;7.07;3.83;;;;;;;16.01;76.46;101470.59;5061603;28;20039;-74
2022/08/22 03:43:07;;;;;;;6.47;3.70;;;;;;;15.99;76.84;101467.16;5057505;28;20029;-74
2022/08/22 03:45:59;;;;;;;10.85;4.20;;;;;;;16.00;77.18;101463.63;5058743;28;20039;-74
2022/08/22 03:48:41;;;;;;;6.22;3.97;;;;;;;15.99;76.98;101461.91;5061146;28;20203;-75
2022/08/22 03:51:27;;;;;;;6.18;3.88;;;;;;;15.98;77.00;101465.47;5058483;28;20033;-74
2022/08/22 03:53:56;;;;;;;7.97;3.95;;;;;;;15.95;76.86;101452.44;5060259;28;20221;-74
2022/08/22 03:56:50;;;;;;;7.05;4.43;;;;;;;15.93;76.42;101461.22;5058023;28;20028;-74
2022/08/22 03:59:16;;;;;;;6.30;3.80;;;;;;;15.91;77.23;101460.44;5059541;28;20545;-75
2022/08/22 04:01:50;;;;;;;7.18;4.05;;;;;;;15.88;77.32;101454.44;5058601;28;20037;-74
2022/08/22 04:04:22;;;;;;;7.03;4.10;;;;;;;15.87;77.16;101455.38;5058112;28;20119;-74
2022/08/22 04:06:59;;;;;;;9.63;4.50;;;;;;;15.83;77.41;101461.59;5057468;28;20033;-74
2022/08/22 04:09:46;;;;;;;7.15;3.95;;;;;;;15.78;77.61;101459.16;5060984;28;20083;-74
2022/08/22 04:12:19;;;;;;;7.07;4.07;;;;;;;15.76;77.72;101458.34;5046562;28;20506;-75
2022/08/22 04:15:13;;;;;;;8.32;3.72;;;;;;;15.74;76.57;101460.19;5064416;28;20063;-74
2022/08/22 04:18:01;;;;;;;6.03;4.00;;;;;;;15.69;76.77;101467.38;5061000;28;20284;-74
2022/08/22 04:20:40;;;;;;;9.10;3.97;;;;;;;15.67;77.80;101471.84;5064397;28;20032;-74
2022/08/22 04:23:48;;;;;;;9.90;4.28;;;;;;;15.67;77.08;101477.09;5061629;28;20483;-74
2022/08/22 04:26:25;;;;;;;8.05;4.40;;;;;;;15.62;77.47;101475.47;5065602;28;20099;-74
2022/08/22 04:28:57;;;;;;;6.80;4.30;;;;;;;15.59;77.67;101480.00;5065114;28;21378;-74
2022/08/22 04:31:31;;;;;;;8.60;4.32;;;;;;;15.58;77.70;101479.13;5062804;28;20029;-74
2022/08/22 04:34:14;;;;;;;5.43;4.00;;;;;;;15.55;77.13;101479.22;5063775;28;20025;-74
2022/08/22 04:36:49;;;;;;;7.78;3.88;;;;;;;15.53;77.18;101474.94;5061799;28;20028;-76
2022/08/22 04:39:32;;;;;;;8.82;4.28;;;;;;;15.48;77.32;101473.34;5064303;28;20105;-73
2022/08/22 04:42:14;;;;;;;10.70;4.75;;;;;;;15.46;77.19;101472.53;5064435;28;20060;-76
2022/08/22 04:44:50;;;;;;;6.70;4.40;;;;;;;15.44;77.42;101476.16;5062123;28;20028;-74
2022/08/22 04:47:37;;;;;;;6.15;4.28;;;;;;;15.42;77.12;101467.47;5058119;28;20383;-76
2022/08/22 04:50:21;;;;;;;8.43;4.43;;;;;;;15.35;77.98;101473.88;5060170;28;20028;-75
2022/08/22 04:53:30;;;;;;;10.40;4.28;;;;;;;15.36;77.06;101472.97;5062044;28;20032;-75
2022/08/22 04:56:14;;;;;;;8.55;3.75;;;;;;;15.30;77.29;101469.63;5022844;28;20143;-77
2022/08/22 04:58:47;;;;;;;7.88;3.60;;;;;;;15.24;77.44;101480.31;5061094;28;20024;-74
2022/08/22 05:01:18;;;;;;;4.80;3.53;;;;;;;15.22;77.66;101484.75;5061351;28;20082;-75
2022/08/22 05:03:50;;;;;;;6.70;3.70;;;;;;;15.20;77.97;101491.81;5064014;28;20028;-75
2022/08/22 05:06:17;;;;;;;;;;;;;;;15.27;76.30;101490.72;5060196;28;20408;-75
2022/08/22 05:08:45;;;;;;;7.35;3.80;;;;;;;15.24;78.51;101495.22;5059831;28;20375;-75
2022/08/22 05:11:13;;;;;;;7.93;4.32;;;;;;;15.22;78.77;101503.09;5063808;28;20037;-75
2022/08/22 05:13:43;;;;;;;7.95;4.05;;;;;;;15.24;79.63;101501.28;5041858;28;20383;-75
2022/08/22 05:16:17;;;;;;;6.15;4.28;;;;;;;15.24;79.46;101493.44;5062446;28;20108;-75
2022/08/22 05:19:08;;;;;;;8.25;4.80;;;;;;;15.29;78.87;101499.38;5058272;28;20021;-75
2022/08/22 05:21:37;;;;;;;6.93;4.82;;;;;;;15.32;79.37;101499.28;5060485;28;20020;-75
2022/08/22 05:24:08;;;;;;;9.80;4.90;;;;;;;15.32;79.30;101501.91;5055188;28;20101;-75
2022/08/22 05:26:37;;;;;;;7.53;5.15;;;;;;;15.35;79.28;101492.22;5055872;28;20040;-75
2022/08/22 05:29:09;;;;;;;8.82;5.50;;;;;;;15.36;79.79;101493.94;5061252;28;20112;-75
2022/08/22 05:31:47;;;;;;;9.75;5.43;;;;;;;15.37;79.95;101499.09;5059691;28;20037;-75
2022/08/22 05:34:17;;;;;;;8.05;5.13;;;;;;;15.40;80.12;101506.88;5058491;28;20104;-75
2022/08/22 05:36:47;;;;;;;7.13;5.13;;;;;;;15.42;80.20;101506.81;5062704;28;20198;-76
2022/08/22 05:39:20;;;;;;;7.50;4.88;;;;;;;15.46;80.50;101511.88;5069550;28;20480;-75
2022/08/22 05:41:47;;;;;;;8.68;5.30;;;;;;;15.49;80.17;101510.94;5064983;28;20163;-75
2022/08/22 05:44:23;;;;;;;9.02;5.25;;;;;;;15.55;80.53;101518.56;5059180;28;20033;-75
2022/08/22 05:47:03;;;;;;;8.23;5.20;;;;;;;15.60;80.54;101514.00;5061830;28;20043;-76
2022/08/22 05:49:35;;;;;;;8.93;5.65;;;;;;;15.65;80.41;101515.63;5062680;28;20107;-75
2022/08/22 05:52:28;;;;;;;10.13;5.82;;;;;;;15.69;79.85;101517.22;5061879;28;20075;-76
2022/08/22 05:55:02;;;;;;;7.63;5.30;;;;;;;15.75;80.82;101514.38;5065836;28;20095;-75
2022/08/22 05:57:38;;;;;;;10.73;6.47;;;;;;;15.78;80.66;101512.50;5054438;28;20043;-76
2022/08/22 06:00:10;;;;;;;10.10;6.00;;;;;;;15.83;80.72;101501.84;5059017;28;20384;-76
2022/08/22 06:02:55;;;;;;;9.60;6.07;;;;;;;15.88;80.65;101499.06;5063110;28;20044;-75
2022/08/22 06:05:25;;;;;;;7.80;5.78;;;;;;;15.92;81.26;101505.91;5055504;28;20029;-76
2022/08/22 06:08:10;;;;;;;10.70;6.45;;;;;;;15.97;81.17;101508.34;5058650;28;20073;-75
2022/08/22 06:10:44;;;;;;;10.23;6.20;;;;;;;16.00;81.07;101511.72;5059983;28;20151;-75
2022/08/22 06:13:14;;;;;;;9.07;6.45;;;;;;;16.05;81.51;101503.69;5061600;28;20028;-75
2022/08/22 06:15:50;;;;;;;9.90;6.70;;;;;;;16.10;80.99;101506.13;5062664;28;20025;-75
2022/08/22 06:18:24;;;;;;;9.95;5.97;;;;;;;16.15;81.19;101512.03;5058283;28;20034;-76
2022/08/22 06:21:08;;;;;;;10.77;6.45;;;;;;;16.23;80.04;101509.97;5057764;28;20024;-75
2022/08/22 06:23:37;;;;;;;9.57;6.60;;;;;;;16.30;81.01;101513.22;5040668;28;20036;-75
2022/08/22 06:26:04;;;;;;;9.75;6.40;;;;;;;16.36;81.00;101513.00;5055276;28;20028;-75
2022/08/22 06:28:41;;;;;;;9.98;6.45;;;;;;;16.44;80.43;101521.41;5055819;28;20031;-75
2022/08/22 06:31:19;;;;;;;9.50;6.07;;;;;;;16.50;80.59;101520.31;5053659;28;20476;-75
2022/08/22 06:33:59;;;;;;;12.55;6.90;;;;;;;16.56;80.58;101525.31;5060565;28;20119;-75
2022/08/22 06:36:31;;;;;;;9.63;6.65;;;;;;;16.60;80.12;101519.03;5055607;28;20017;-76
2022/08/22 06:39:21;;;;;;;11.18;7.18;;;;;;;16.65;79.53;101522.31;5053207;28;20032;-75
2022/08/22 06:41:52;;;;;;;9.32;6.47;;;;;;;16.70;80.05;101524.78;5054860;28;20039;-75
2022/08/22 06:44:25;;;;;;;10.50;6.53;;;;;;;16.74;80.25;101530.75;5053837;28;20119;-75
2022/08/22 06:46:56;;;;;;;9.65;6.50;;;;;;;16.78;79.59;101529.72;5054315;28;20480;-75
2022/08/22 06:49:23;;;;;;;9.55;6.72;;;;;;;16.82;79.45;101531.31;5058362;28;20108;-75
2022/08/22 06:51:50;;;;;;;11.32;7.22;;;;;;;16.87;79.66;101534.59;5056464;28;20024;-75
2022/08/22 06:54:20;;;;;;;11.43;6.63;;;;;;;16.93;79.62;101528.22;5054769;28;20082;-76
2022/08/22 06:56:49;;;;;;;10.52;6.18;;;;;;;16.97;79.61;101538.59;5058694;28;20525;-75
2022/08/22 06:59:20;;;;;;;6.55;4.82;;;;;;;17.04;80.05;101528.66;5062430;28;20028;-75
2022/08/22 07:01:51;;;;;;;10.90;6.30;;;;;;;17.09;79.28;101534.56;5062200;28;20108;-75
2022/08/22 07:04:20;;;;;;;11.13;5.88;;;;;;;17.13;79.50;101525.63;5056224;28;20640;-76
2022/08/22 07:06:49;;;;;;;9.65;6.40;;;;;;;17.20;79.43;101538.53;5057357;28;20024;-75
2022/08/22 07:09:23;;;;;;;9.63;6.47;;;;;;;17.26;79.81;101525.09;5052449;28;20028;-75
2022/08/22 07:11:49;;;;;;;11.73;7.03;;;;;;;17.29;79.60;101538.13;5053969;28;20086;-75
2022/08/22 07:14:23;;;;;;;10.40;6.30;;;;;;;17.32;79.29;101540.63;5055505;28;20040;-75
2022/08/22 07:17:03;;;;;;;11.27;7.15;;;;;;;17.37;79.83;101543.94;5058773;28;20082;-75
2022/08/22 07:19:33;;;;;;;10.95;7.07;;;;;;;17.42;79.78;101534.03;5053594;28;20095;-75
2022/08/22 07:22:11;;;;;;;11.50;6.95;;;;;;;17.47;79.81;101533.88;5040777;28;20111;-75
2022/08/22 07:24:43;;;;;;;9.75;6.55;;;;;;;17.53;80.00;101543.25;5050153;28;20029;-75
2022/08/22 07:27:16;;;;;;;12.82;7.13;;;;;;;17.57;80.07;101536.94;5055528;28;20025;-75
2022/08/22 07:29:46;;;;;;;10.50;7.70;;;;;;;17.62;79.89;101534.09;5056036;28;20017;-75
2022/08/22 07:32:15;;;;;;;10.45;6.80;;;;;;;17.66;78.87;101533.88;5056802;28;20028;-75
2022/08/22 07:35:02;;;;;;;12.35;7.63;;;;;;;17.69;78.68;101539.03;5036950;28;20436;-76
2022/08/22 07:37:54;;;;;;;10.30;6.97;;;;;;;17.74;79.41;101530.91;5053447;28;20040;-75
2022/08/22 07:40:43;;;;;;;10.90;7.18;;;;;;;17.79;78.87;101539.47;5057292;28;20056;-75
2022/08/22 07:43:47;;;;;;;12.27;7.50;;;;;;;17.88;78.98;101538.19;5053175;28;20020;-76
2022/08/22 07:46:31;;;;;;;11.30;7.45;;;;;;;17.95;78.51;101536.13;5060761;28;20420;-76
2022/08/22 07:49:07;;;;;;;11.23;7.10;;;;;;;17.99;78.28;101530.69;5035126;28;20383;-75
2022/08/22 07:51:42;;;;;;;12.00;6.72;;;;;;;18.03;77.74;101527.00;5055355;28;20107;-75
2022/08/22 07:54:12;;;;;;;9.82;6.78;;;;;;;18.08;77.68;101523.31;5056320;28;20028;-75
2022/08/22 07:56:42;;;;;;;10.65;6.78;;;;;;;18.14;77.58;101528.25;5055759;28;20032;-75
2022/08/22 07:59:13;;;;;;;11.73;6.63;;;;;;;18.20;77.86;101523.56;5053806;28;20040;-75
2022/08/22 08:01:44;;;;;;;11.48;6.72;;;;;;;18.30;77.23;101529.25;5059706;28;20361;-75
2022/08/22 08:04:15;;;;;;;10.85;7.40;;;;;;;18.38;76.82;101525.41;5054801;28;20484;-75
2022/08/22 08:06:40;;;;;;;11.23;7.47;;;;;;;18.46;76.10;101520.59;5052526;28;20389;-75
2022/08/22 08:09:11;;;;;;;13.50;7.45;;;;;;;18.57;77.54;101520.97;5054843;28;20726;-75
2022/08/22 08:11:40;;;;;;;11.95;8.05;;;;;;;18.66;75.97;101514.38;5038585;28;20107;-75
2022/08/22 08:14:07;;;;;;;8.38;6.80;;;;;;;18.74;76.26;101521.91;5060503;28;20029;-75
2022/08/22 08:16:51;;;;;;;10.73;7.03;;;;;;;18.80;74.90;101516.31;5062606;28;20137;-75
2022/08/22 08:19:18;;;;;;;10.73;6.20;;;;;;;18.84;74.03;101511.75;5065938;28;20029;-75
2022/08/22 08:21:52;;;;;;;11.80;6.55;;;;;;;18.89;74.76;101505.31;5056321;28;20107;-76
2022/08/22 08:24:22;;;;;;;12.13;6.75;;;;;;;18.93;73.43;101501.63;5060114;28;20029;-76
2022/08/22 08:29:45;;;;;;;10.70;7.07;;;;;;;18.99;73.37;101500.47;5055930;28;20076;-75
2022/08/22 08:32:12;;;;;;;13.57;7.43;;;;;;;19.02;73.52;101502.09;5057107;28;20567;-75
2022/08/22 08:34:41;;;;;;;11.07;6.88;;;;;;;19.08;74.23;101499.16;5057322;28;20028;-75
2022/08/22 08:37:32;;;;;;;10.10;7.38;;;;;;;19.13;74.49;101502.38;5057299;28;20060;-75
2022/08/22 08:40:00;;;;;;;10.70;7.40;;;;;;;19.19;73.55;101504.72;5056205;28;20029;-75
2022/08/22 08:46:13;;;;;;;10.75;6.22;;;;;;;19.32;71.66;101496.16;5027390;28;20074;-76
2022/08/22 08:49:20;;;;;;;11.70;6.80;;;;;;;19.43;72.57;101493.84;5054599;28;20052;-76
2022/08/22 08:51:49;;;;;;;11.32;6.82;;;;;;;19.51;70.60;101502.19;5051713;28;20021;-75
2022/08/22 08:54:42;;;;;;;9.63;6.10;;;;;;;19.58;70.96;101496.59;5055989;28;20027;-75
2022/08/22 08:57:25;;;;;;;8.80;6.05;;;;;;;19.64;70.22;101496.25;5059623;28;20345;-76
2022/08/22 09:00:11;;;;;;;10.82;6.60;;;;;;;19.69;69.98;101494.22;5058595;28;20404;-76
2022/08/22 09:03:08;;;;;;;9.05;5.38;;;;;;;19.73;69.71;101495.75;5062486;28;20020;-76
2022/08/22 09:05:50;;;;;;;11.57;5.50;;;;;;;19.77;68.53;101497.31;5065741;28;20031;-76
2022/08/22 09:08:43;;;;;;;7.07;5.03;;;;;;;19.80;67.51;101493.63;5057093;28;20027;-76
2022/08/22 09:11:46;;;;;;;9.75;5.60;;;;;;;19.86;68.30;101488.88;5048282;28;20044;-77
2022/08/22 09:14:18;;;;;;;8.23;5.15;;;;;;;19.92;66.00;101485.06;5062555;28;20028;-77
2022/08/22 09:17:21;;;;;;;8.18;5.28;;;;;;;19.98;67.40;101489.19;5060330;28;20112;-76
2022/08/22 09:20:18;;;;;;;10.20;5.22;;;;;;;20.06;66.90;101492.22;5054295;28;20028;-76
2022/08/22 09:23:31;;;;;;;9.60;5.43;;;;;;;20.14;66.36;101481.22;5067503;28;20024;-76
2022/08/22 09:26:15;;;;;;;10.50;4.78;;;;;;;20.23;66.51;101486.00;5054191;28;20100;-76
2022/08/22 09:28:47;;;;;;;8.55;5.07;;;;;;;20.33;65.85;101488.97;5062117;28;20447;-77
2022/08/22 09:31:27;;;;;;;8.50;4.68;;;;;;;20.42;65.37;101477.88;5043670;28;20566;-76
2022/08/22 09:34:19;;;;;;;8.60;4.65;;;;;;;20.52;64.15;101482.63;5056400;28;20021;-76
2022/08/22 09:37:12;;;;;;;7.10;4.18;;;;;;;20.57;63.14;101476.16;5050998;28;20036;-77
2022/08/22 09:39:54;;;;;;;7.03;3.15;;;;;;;20.65;61.75;101475.72;5059286;28;20360;-76
2022/08/22 09:42:49;;;;;;;9.18;3.17;;;;;;;20.76;62.87;101480.38;5058006;28;20029;-76
2022/08/22 09:45:23;;;;;;;6.75;2.97;;;;;;;20.82;60.32;101482.66;5059195;28;20028;-76
2022/08/22 09:47:58;;;;;;;5.13;2.90;;;;;;;20.86;60.02;101481.56;5056000;28;20086;-76
2022/08/22 09:50:43;;;;;;;5.72;2.90;;;;;;;20.93;60.72;101484.69;5053313;28;20391;-76
2022/08/22 09:53:22;;;;;;;7.13;3.00;;;;;;;21.01;58.23;101479.78;5052490;28;20086;-76
2022/08/22 09:56:27;;;;;;;8.63;3.00;;;;;;;21.10;61.05;101474.88;5058434;28;20086;-76
2022/08/22 09:59:06;;;;;;;5.70;2.50;;;;;;;21.13;58.36;101475.53;4994577;28;20050;-76
2022/08/22 10:01:38;;;;;;;3.83;2.30;;;;;;;21.19;58.99;101474.31;5054631;28;20025;-76
2022/08/22 10:04:13;;;;;;;5.30;2.30;;;;;;;21.27;59.82;101468.56;5062417;28;20790;-76
2022/08/22 10:07:13;;;;;;;4.70;1.90;;;;;;;21.30;58.88;101473.66;5052946;28;20064;-76
2022/08/22 10:10:02;;;;;;;6.47;2.50;;;;;;;21.35;58.98;101467.13;5049473;28;20539;-76
2022/08/22 10:12:50;;;;;;;5.05;2.10;;;;;;;21.38;58.57;101461.66;5058470;28;20098;-76
2022/08/22 10:15:34;;;;;;;4.72;2.25;;;;;;;21.40;56.46;101458.94;5055798;28;20025;-76
2022/08/22 10:18:27;;;;;;;4.55;2.08;;;;;;;21.42;58.01;101464.13;5054952;28;20042;-76
2022/08/22 10:21:04;;;;;;;6.75;2.10;;;;;;;21.42;57.86;101451.75;5060760;28;20020;-76
2022/08/22 10:23:40;;;;;;;4.10;2.10;;;;;;;21.44;58.08;101449.84;5055009;28;20421;-76
2022/08/22 10:26:19;;;;;;;4.78;2.35;;;;;;;21.49;57.28;101446.94;5058353;28;20017;-76
2022/08/22 10:28:51;;;;;;;5.55;2.13;;;;;;;21.53;55.85;101451.06;5057933;28;20367;-75
2022/08/22 10:31:49;;;;;;;6.53;2.10;;;;;;;21.59;57.04;101444.56;5040885;28;20029;-76
2022/08/22 10:34:26;;;;;;;6.93;2.13;;;;;;;21.66;56.94;101449.41;5056742;28;20068;-76
2022/08/22 10:37:14;;;;;;;5.18;1.85;;;;;;;21.72;56.68;101445.50;5057664;28;20027;-76
2022/08/22 10:39:55;;;;;;;5.78;2.00;;;;;;;21.74;54.71;101438.31;5063575;28;20617;-76
2022/08/22 10:42:28;;;;;;;5.63;1.67;;;;;;;21.79;55.43;101440.66;5041456;28;20348;-76
2022/08/22 10:45:16;;;;;;;3.35;1.70;;;;;;;21.82;54.93;101443.97;5055902;28;20021;-76
2022/08/22 10:48:03;;;;;;;4.72;1.80;;;;;;;21.85;55.95;101444.72;5059088;28;20036;-76
2022/08/22 10:50:41;;;;;;;4.97;1.90;;;;;;;21.84;53.31;101443.88;5058262;28;20029;-76
2022/08/22 10:53:35;;;;;;;4.93;1.60;;;;;;;21.86;54.89;101444.63;5059358;28;20090;-76
2022/08/22 10:56:22;;;;;;;4.25;1.67;;;;;;;21.86;54.40;101441.13;5056751;28;20081;-76
2022/08/22 10:58:54;;;;;;;3.55;1.55;;;;;;;21.86;53.34;101441.97;5057267;28;20035;-76
2022/08/22 11:01:24;;;;;;;3.35;1.65;;;;;;;21.87;53.27;101438.34;5057583;28;20111;-76
2022/08/22 11:04:13;;;;;;;3.33;1.63;;;;;;;21.87;54.61;101433.06;5057838;28;20024;-76
2022/08/22 11:06:46;;;;;;;4.90;1.70;;;;;;;21.84;54.19;101435.94;5060310;28;20037;-76
2022/08/22 11:09:22;;;;;;;4.95;1.77;;;;;;;21.83;53.07;101428.94;5059284;28;20029;-76
2022/08/22 11:12:01;;;;;;;4.30;1.48;;;;;;;21.82;52.92;101427.22;5054135;28;20064;-76
2022/08/22 11:14:38;;;;;;;4.97;1.80;;;;;;;21.85;53.50;101421.75;5054852;28;20399;-76
2022/08/22 11:17:38;;;;;;;6.45;1.90;;;;;;;21.87;54.20;101425.13;5057061;28;20023;-76
2022/08/22 11:20:25;;;;;;;2.67;1.48;;;;;;;21.88;53.84;101426.81;5054641;28;20055;-76
2022/08/22 11:23:21;;;;;;;4.43;1.60;;;;;;;21.96;53.55;101427.19;5056196;28;20483;-76
2022/08/22 11:26:04;;;;;;;5.63;1.80;;;;;;;22.10;53.83;101422.78;5059399;28;20032;-76
2022/08/22 11:28:33;;;;;;;6.78;1.90;;;;;;;22.24;53.44;101428.00;5055604;28;20412;-76
2022/08/22 11:31:20;;;;;;;6.15;1.80;;;;;;;22.38;52.59;101428.91;5057243;28;20025;-76
2022/08/22 11:33:55;;;;;;;2.80;1.40;;;;;;;22.47;51.83;101420.38;5054364;28;20048;-76
2022/08/22 11:36:32;;;;;;;5.38;1.40;;;;;;;22.55;51.46;101423.34;5056995;28;20021;-76
2022/08/22 11:39:16;;;;;;;3.40;1.52;;;;;;;22.67;51.21;101423.50;5055802;28;20058;-76
2022/08/22 11:41:44;;;;;;;4.13;1.58;;;;;;;22.79;49.14;101416.50;5052256;28;20024;-76
2022/08/22 11:44:19;;;;;;;3.67;1.50;;;;;;;22.95;49.53;101421.59;5052646;28;20483;-76
2022/08/22 11:46:50;;;;;;;3.47;1.50;;;;;;;23.07;49.14;101415.41;5057107;28;20511;-76
2022/08/22 11:49:48;;;;;;;3.97;1.67;;;;;;;23.16;48.59;101412.13;5055424;28;20104;-77
2022/08/22 11:52:24;;;;;;;4.45;1.35;;;;;;;23.27;48.91;101399.94;5053812;28;20495;-76
2022/08/22 11:55:02;;;;;;;3.25;1.30;;;;;;;23.34;49.67;101411.81;5055195;28;20037;-76
2022/08/22 11:57:36;;;;;;;5.78;1.48;;;;;;;23.36;48.67;101409.03;5055701;28;20480;-76
2022/08/22 12:00:22;;;;;;;5.63;1.58;;;;;;;23.39;47.53;101409.69;5058867;28;20032;-76
2022/08/22 12:02:50;;;;;;;4.03;1.30;;;;;;;23.53;47.11;101399.88;5053761;28;20052;-76
2022/08/22 12:05:23;;;;;;;5.88;1.48;;;;;;;23.61;46.44;101397.50;5056228;28;20040;-76
2022/08/22 12:07:55;;;;;;;4.05;1.40;;;;;;;23.65;46.04;101397.16;5057838;28;20025;-76
2022/08/22 12:10:31;;;;;;;4.30;1.63;;;;;;;23.70;46.61;101402.16;5057000;28;20511;-77
2022/08/22 12:13:11;;;;;;;4.45;1.50;;;;;;;23.69;46.11;101400.47;5055375;28;20116;-76
2022/08/22 12:16:09;;;;;;;5.18;1.50;;;;;;;23.73;48.31;101406.41;5060425;28;20056;-76
2022/08/22 12:19:04;;;;;;;4.45;1.40;;;;;;;23.77;49.02;101400.75;5050838;28;20025;-76
2022/08/22 12:21:42;;;;;;;5.22;1.55;;;;;;;23.76;46.85;101396.38;5054918;28;20044;-77
2022/08/22 12:24:31;;;;;;;4.25;1.70;;;;;;;23.82;47.86;101394.25;5055683;28;20028;-76
2022/08/22 12:27:10;;;;;;;3.65;1.40;;;;;;;23.87;46.63;101398.25;5064558;28;20081;-76
2022/08/22 12:29:46;;;;;;;4.00;1.67;;;;;;;23.87;47.15;101392.94;5045870;28;20039;-76
2022/08/22 12:32:32;;;;;;;3.92;1.40;;;;;;;23.86;46.89;101406.34;5067491;28;20032;-76